createdAt,value
2018-05-08T00:00:51.573Z,68.50
2018-05-08T00:03:19.821Z,68.47
2018-05-08T00:05:48.066Z,71.73
2018-05-08T00:08:16.295Z,71.00
2018-05-08T00:10:44.555Z,70.10
2018-05-08T00:13:12.783Z,67.13
2018-05-08T00:15:41.769Z,70.37
2018-05-08T00:18:12.015Z,71.83
2018-05-08T00:20:40.248Z,70.37
2018-05-08T00:23:10.567Z,71.07
2018-05-08T00:25:38.995Z,70.87
2018-05-08T00:28:07.977Z,75.30
2018-05-08T00:30:36.246Z,71.33
2018-05-08T00:33:04.496Z,72.30
2018-05-08T00:35:32.708Z,68.37
2018-05-08T00:38:01.006Z,69.27
2018-05-08T00:40:29.316Z,69.93
2018-05-08T00:42:57.578Z,68.80
2018-05-08T00:45:26.327Z,70.97
2018-05-08T00:47:54.565Z,69.00
2018-05-08T00:50:22.777Z,69.33
2018-05-08T00:52:50.985Z,68.27
2018-05-08T00:55:20.211Z,69.90
2018-05-08T00:57:48.487Z,70.03
2018-05-08T01:00:16.724Z,70.60
2018-05-08T01:02:45.936Z,72.23
2018-05-08T01:05:14.169Z,70.87
2018-05-08T01:07:42.394Z,70.03
2018-05-08T01:10:10.633Z,70.03
2018-05-08T01:12:38.848Z,69.60
2018-05-08T01:15:07.101Z,70.07
2018-05-08T01:17:35.321Z,69.27
2018-05-08T01:20:03.573Z,69.43
2018-05-08T01:22:31.853Z,66.47
2018-05-08T01:25:00.121Z,68.07
2018-05-08T01:27:28.626Z,69.07
2018-05-08T01:29:57.728Z,67.53
2018-05-08T01:32:26.721Z,67.13
2018-05-08T01:34:54.968Z,68.40
2018-05-08T01:37:24.129Z,70.63
2018-05-08T01:39:53.200Z,68.57
2018-05-08T01:42:21.522Z,70.17
2018-05-08T01:44:49.802Z,69.00
2018-05-08T01:47:18.262Z,65.73
2018-05-08T01:49:46.789Z,66.50
2018-05-08T01:52:15.921Z,70.87
2018-05-08T01:54:44.930Z,65.97
2018-05-08T01:57:13.186Z,67.13
2018-05-08T01:59:41.429Z,68.83
2018-05-08T02:02:09.650Z,65.40
2018-05-08T02:04:37.858Z,66.73
2018-05-08T02:07:06.114Z,69.40
2018-05-08T02:09:36.191Z,70.10
2018-05-08T02:12:04.447Z,66.60
2018-05-08T02:14:32.711Z,67.40
2018-05-08T02:17:00.924Z,67.47
2018-05-08T02:19:29.977Z,67.47
2018-05-08T02:21:58.193Z,66.93
2018-05-08T02:24:26.506Z,65.43
2018-05-08T02:26:55.527Z,66.53
2018-05-08T02:29:23.762Z,68.50
2018-05-08T02:31:53.101Z,65.73
2018-05-08T02:34:21.317Z,68.47
2018-05-08T02:36:50.024Z,64.67
2018-05-08T02:39:18.263Z,65.73
2018-05-08T02:41:46.525Z,68.23
2018-05-08T02:44:14.917Z,65.77
2018-05-08T02:46:43.144Z,68.43
2018-05-08T02:49:11.361Z,65.00
2018-05-08T02:51:39.593Z,65.50
2018-05-08T02:54:07.810Z,71.93
2018-05-08T02:56:36.803Z,65.77
2018-05-08T02:59:05.886Z,66.53
2018-05-08T03:01:34.094Z,69.37
2018-05-08T03:04:02.315Z,66.67
2018-05-08T03:06:31.458Z,63.93
2018-05-08T03:08:59.692Z,67.53
2018-05-08T03:11:27.905Z,66.47
2018-05-08T03:13:56.153Z,64.30
2018-05-08T03:16:24.996Z,64.40
2018-05-08T03:18:53.222Z,69.27
2018-05-08T03:21:21.445Z,73.67
2018-05-08T03:26:24.171Z,67.73
2018-05-08T03:28:52.400Z,65.00
2018-05-08T03:31:20.622Z,63.10
2018-05-08T03:33:48.832Z,64.43
2018-05-08T03:36:17.076Z,64.23
2018-05-08T03:38:45.294Z,65.80
2018-05-08T03:41:13.562Z,65.13
2018-05-08T03:43:41.786Z,65.00
2018-05-08T03:46:10.022Z,63.90
2018-05-08T03:48:38.240Z,63.30
2018-05-08T03:51:06.508Z,64.47
2018-05-08T03:53:35.529Z,64.60
2018-05-08T03:58:38.222Z,65.43
2018-05-08T04:01:24.101Z,64.97
2018-05-08T04:04:11.023Z,65.70
2018-05-08T04:07:08.832Z,62.20
2018-05-08T04:09:37.076Z,62.73
2018-05-08T04:12:05.320Z,64.87
2018-05-08T04:14:34.300Z,65.73
2018-05-08T04:17:02.519Z,65.33
2018-05-08T04:19:31.410Z,63.77
2018-05-08T04:21:59.659Z,65.60
2018-05-08T04:24:27.862Z,64.90
2018-05-08T04:26:56.121Z,65.73
2018-05-08T04:29:24.348Z,66.47
2018-05-08T04:31:52.579Z,63.67
2018-05-08T04:34:20.796Z,65.83
2018-05-08T04:36:49.015Z,65.30
2018-05-08T04:39:17.225Z,65.27
2018-05-08T04:41:45.463Z,65.57
2018-05-08T04:44:13.760Z,64.63
2018-05-08T04:46:41.974Z,65.43
2018-05-08T04:49:10.229Z,67.13
2018-05-08T04:51:38.452Z,67.43
2018-05-08T04:54:07.447Z,66.93
2018-05-08T04:56:36.442Z,69.20
2018-05-08T04:59:05.490Z,71.13
2018-05-08T05:01:33.916Z,65.93
2018-05-08T05:04:02.983Z,67.90
2018-05-08T05:06:31.237Z,71.73
2018-05-08T05:08:59.461Z,67.07
2018-05-08T05:11:27.717Z,69.67
2018-05-08T05:13:56.101Z,67.87
2018-05-08T05:16:24.317Z,69.97
2018-05-08T05:18:52.567Z,68.47
2018-05-08T05:21:20.822Z,69.27
2018-05-08T05:23:49.057Z,70.57
2018-05-08T05:26:17.357Z,71.50
2018-05-08T05:28:45.568Z,67.93
2018-05-08T05:31:13.793Z,69.23
2018-05-08T05:33:43.022Z,71.23
2018-05-08T05:36:12.098Z,69.87
2018-05-08T05:38:40.297Z,68.60
2018-05-08T05:41:09.145Z,71.00
2018-05-08T05:43:37.406Z,71.07
2018-05-08T05:46:06.477Z,70.27
2018-05-08T05:48:35.475Z,74.00
2018-05-08T05:51:05.116Z,74.47
2018-05-08T05:53:33.536Z,72.97
2018-05-08T05:56:02.795Z,72.50
2018-05-08T05:58:31.051Z,73.47
2018-05-08T06:01:00.901Z,71.60
2018-05-08T06:03:30.113Z,72.30
2018-05-08T06:05:58.366Z,73.50
2018-05-08T06:08:26.602Z,75.20
2018-05-08T06:10:56.158Z,71.03
2018-05-08T06:13:24.371Z,73.67
2018-05-08T06:15:53.508Z,74.93
2018-05-08T06:18:21.744Z,78.53
2018-05-08T06:20:49.958Z,84.53
2018-05-08T06:23:20.052Z,76.80
2018-05-08T06:25:48.354Z,83.50
2018-05-08T06:28:16.962Z,85.37
2018-05-08T06:30:45.185Z,77.97
2018-05-08T06:33:13.443Z,74.33
2018-05-08T06:35:42.086Z,78.30
2018-05-08T06:38:10.309Z,78.20
2018-05-08T06:40:38.629Z,74.60
2018-05-08T06:43:06.850Z,76.10
2018-05-08T06:45:35.092Z,83.13
2018-05-08T06:48:03.331Z,78.17
2018-05-08T06:50:32.318Z,76.53
2018-05-08T06:53:01.312Z,80.57
2018-05-08T06:55:30.322Z,79.33
2018-05-08T06:57:59.423Z,77.73
2018-05-08T07:00:28.845Z,83.67
2018-05-08T07:02:57.967Z,85.37
2018-05-08T07:05:26.206Z,80.13
2018-05-08T07:07:54.429Z,80.47
2018-05-08T07:10:22.681Z,84.17
2018-05-08T07:12:50.905Z,78.70
2018-05-08T07:15:19.132Z,77.70
2018-05-08T07:17:47.365Z,78.63
2018-05-08T07:20:15.587Z,80.67
2018-05-08T07:22:43.851Z,84.07
2018-05-08T07:25:12.151Z,81.43
2018-05-08T07:27:40.392Z,83.97
2018-05-08T07:30:08.621Z,80.20
2018-05-08T07:32:36.913Z,82.80
2018-05-08T07:35:05.959Z,78.97
2018-05-08T07:37:34.208Z,86.20
2018-05-08T07:40:02.437Z,83.93
2018-05-08T07:42:30.691Z,83.83
2018-05-08T07:44:58.914Z,80.80
2018-05-08T07:47:28.460Z,81.97
2018-05-08T07:49:56.678Z,82.27
2018-05-08T07:52:24.957Z,80.70
2018-05-08T07:54:53.207Z,80.40
2018-05-08T07:57:22.188Z,81.73
2018-05-08T07:59:50.401Z,79.87
2018-05-08T08:02:18.631Z,81.50
2018-05-08T08:04:47.093Z,82.40
2018-05-08T08:07:15.656Z,82.37
2018-05-08T08:09:45.109Z,81.10
2018-05-08T08:12:14.010Z,83.13
2018-05-08T08:14:42.264Z,79.00
2018-05-08T08:17:10.470Z,81.20
2018-05-08T08:19:38.641Z,87.60
2018-05-08T08:22:06.823Z,86.47
2018-05-08T08:24:35.049Z,89.37
2018-05-08T08:27:03.233Z,81.17
2018-05-08T08:29:31.446Z,80.60
2018-05-08T08:31:59.731Z,79.63
2018-05-08T08:34:27.950Z,85.83
2018-05-08T08:36:56.119Z,86.37
2018-05-08T08:39:24.328Z,80.23
2018-05-08T08:41:52.501Z,86.40
2018-05-08T08:44:21.336Z,82.20
2018-05-08T08:46:49.573Z,82.50
2018-05-08T08:49:17.809Z,85.73
2018-05-08T08:51:46.017Z,84.53
2018-05-08T08:54:14.211Z,83.93
2018-05-08T08:56:42.398Z,91.70
2018-05-08T08:59:10.587Z,84.07
2018-05-08T09:01:39.562Z,81.07
2018-05-08T09:04:07.854Z,82.20
2018-05-08T09:06:35.987Z,84.80
2018-05-08T09:09:04.263Z,84.37
2018-05-08T09:11:32.515Z,84.80
2018-05-08T09:14:00.849Z,82.03
2018-05-08T09:16:29.048Z,84.47
2018-05-08T09:18:57.233Z,89.67
2018-05-08T09:21:26.182Z,81.17
2018-05-08T09:23:54.437Z,82.43
2018-05-08T09:26:23.020Z,82.80
2018-05-08T09:28:51.216Z,83.30
2018-05-08T09:31:19.434Z,78.80
2018-05-08T09:33:49.328Z,78.53
2018-05-08T09:36:17.518Z,77.43
2018-05-08T09:38:46.503Z,82.43
2018-05-08T09:41:14.720Z,83.53
2018-05-08T09:43:42.916Z,78.23
2018-05-08T09:46:11.104Z,84.23
2018-05-08T09:48:39.314Z,81.63
2018-05-08T09:51:08.246Z,88.90
2018-05-08T09:53:36.440Z,88.63
2018-05-08T09:56:04.656Z,81.50
2018-05-08T09:58:32.842Z,82.87
2018-05-08T10:01:01.113Z,82.70
2018-05-08T10:03:29.249Z,80.23
2018-05-08T10:05:57.438Z,79.10
2018-05-08T10:08:25.639Z,77.53
2018-05-08T10:10:53.840Z,78.17
2018-05-08T10:13:22.033Z,79.23
2018-05-08T10:15:51.159Z,80.97
2018-05-08T10:18:20.879Z,79.80
2018-05-08T10:20:49.071Z,82.03
2018-05-08T10:23:17.285Z,82.93
2018-05-08T10:25:45.482Z,81.63
2018-05-08T10:28:13.666Z,78.80
2018-05-08T10:30:41.870Z,83.83
2018-05-08T10:33:10.041Z,80.20
2018-05-08T10:35:38.225Z,81.23
2018-05-08T10:38:06.436Z,78.13
2018-05-08T10:40:34.642Z,80.03
2018-05-08T10:43:03.591Z,79.80
2018-05-08T10:45:31.797Z,79.23
2018-05-08T10:47:59.992Z,75.00
2018-05-08T10:50:28.178Z,75.23
2018-05-08T10:52:57.058Z,78.80
2018-05-08T10:55:25.250Z,80.77
2018-05-08T10:57:53.511Z,78.50
2018-05-08T11:00:22.473Z,85.33
2018-05-08T11:02:50.723Z,79.23
2018-05-08T11:05:18.923Z,77.63
2018-05-08T11:07:47.126Z,83.20
2018-05-08T11:10:15.310Z,78.57
2018-05-08T11:12:43.493Z,78.50
2018-05-08T11:15:11.697Z,80.93
2018-05-08T11:17:39.889Z,77.07
2018-05-08T11:20:08.096Z,77.93
2018-05-08T11:22:37.068Z,74.73
2018-05-08T11:25:05.980Z,78.50
2018-05-08T11:27:34.190Z,79.57
2018-05-08T11:30:02.405Z,72.13
2018-05-08T11:32:31.700Z,78.93
2018-05-08T11:34:59.972Z,75.10
2018-05-08T11:37:28.742Z,77.30
2018-05-08T11:39:56.939Z,76.80
2018-05-08T11:42:25.130Z,83.77
2018-05-08T11:44:53.342Z,74.63
2018-05-08T11:47:21.515Z,74.47
2018-05-08T11:49:49.742Z,74.87
2018-05-08T11:52:17.938Z,79.90
2018-05-08T11:54:46.912Z,77.67
2018-05-08T11:57:15.085Z,78.17
2018-05-08T11:59:43.544Z,76.77
2018-05-08T12:02:11.735Z,73.97
2018-05-08T12:04:41.126Z,80.67
2018-05-08T12:07:10.125Z,75.27
2018-05-08T12:09:38.323Z,77.17
2018-05-08T12:12:07.601Z,73.47
2018-05-08T12:14:36.168Z,77.63
2018-05-08T12:17:04.372Z,74.60
2018-05-08T12:19:32.573Z,73.83
2018-05-08T12:22:01.891Z,78.57
2018-05-08T12:24:30.829Z,74.97
2018-05-08T12:26:59.806Z,71.80
2018-05-08T12:29:28.110Z,73.77
2018-05-08T12:31:56.296Z,73.33
2018-05-08T12:34:24.509Z,75.47
2018-05-08T12:36:53.119Z,73.77
2018-05-08T12:39:22.185Z,75.47
2018-05-08T12:41:50.440Z,72.03
2018-05-08T12:44:19.418Z,74.60
2018-05-08T12:46:47.787Z,76.50
2018-05-08T12:49:15.966Z,73.80
2018-05-08T12:51:44.209Z,71.63
2018-05-08T12:54:12.390Z,74.83
2018-05-08T12:56:41.317Z,71.67
2018-05-08T12:59:09.526Z,74.43
2018-05-08T13:01:37.697Z,72.83
2018-05-08T13:04:06.775Z,72.50
2018-05-08T13:06:35.990Z,72.87
2018-05-08T13:09:04.809Z,75.80
2018-05-08T13:11:33.033Z,78.90
2018-05-08T13:14:01.229Z,77.87
2018-05-08T13:16:29.442Z,74.43
2018-05-08T13:18:57.635Z,77.77
2018-05-08T13:21:27.014Z,76.23
2018-05-08T13:23:56.846Z,82.27
2018-05-08T13:26:25.369Z,79.30
2018-05-08T13:28:53.655Z,75.13
2018-05-08T13:31:21.888Z,76.67
2018-05-08T13:33:50.110Z,80.17
2018-05-08T13:36:18.342Z,76.10
2018-05-08T13:38:46.543Z,76.53
2018-05-08T13:41:15.502Z,78.20
2018-05-08T13:43:43.792Z,79.23
2018-05-08T13:46:12.029Z,74.80
2018-05-08T13:48:40.262Z,77.53
2018-05-08T13:51:09.237Z,81.57
2018-05-08T13:53:38.252Z,78.03
2018-05-08T13:56:06.520Z,80.57
2018-05-08T13:58:34.760Z,79.30
2018-05-08T14:01:04.021Z,79.90
2018-05-08T14:03:32.312Z,85.47
2018-05-08T14:06:00.526Z,90.80
2018-05-08T14:08:28.696Z,95.93
2018-05-08T14:10:56.873Z,94.33
2018-05-08T14:13:25.080Z,93.17
2018-05-08T14:15:54.042Z,99.10
2018-05-08T14:18:22.233Z,90.37
2018-05-08T14:20:52.127Z,92.80
2018-05-08T14:23:21.162Z,98.40
2018-05-08T14:25:49.553Z,100.63
2018-05-08T14:28:17.756Z,98.33
2018-05-08T14:30:45.954Z,95.90
2018-05-08T14:33:14.138Z,91.97
2018-05-08T14:35:43.190Z,98.33
2018-05-08T14:38:12.759Z,96.27
2018-05-08T14:40:40.992Z,94.57
2018-05-08T14:43:09.262Z,89.03
2018-05-08T14:45:37.460Z,92.83
2018-05-08T14:48:07.354Z,87.63
2018-05-08T14:50:35.565Z,88.50
2018-05-08T14:53:03.929Z,88.77
2018-05-08T14:55:32.140Z,86.00
2018-05-08T14:58:00.359Z,80.80
2018-05-08T15:00:31.035Z,88.77
2018-05-08T15:02:59.573Z,77.00
2018-05-08T15:05:27.767Z,76.87
2018-05-08T15:07:55.996Z,78.47
2018-05-08T15:10:24.202Z,75.53
2018-05-08T15:12:53.148Z,74.20
2018-05-08T15:15:21.502Z,74.10
2018-05-08T15:17:49.697Z,73.60
2018-05-08T15:20:17.912Z,73.67
2018-05-08T15:22:46.497Z,75.33
2018-05-08T15:25:14.681Z,73.53
2018-05-08T15:27:42.904Z,73.90
2018-05-08T15:30:11.318Z,73.50
2018-05-08T15:32:39.506Z,73.43
2018-05-08T15:35:07.701Z,73.93
2018-05-08T15:37:36.887Z,72.63
2018-05-08T15:40:05.153Z,73.33
2018-05-08T15:42:33.404Z,76.23
2018-05-08T15:45:01.580Z,73.03
2018-05-08T15:47:31.182Z,72.93
2018-05-08T15:49:59.403Z,70.60
2018-05-08T15:52:29.115Z,74.67
2018-05-08T15:54:58.280Z,73.13
2018-05-08T15:57:29.002Z,73.50
2018-05-08T15:59:57.168Z,72.23
2018-05-08T16:02:25.839Z,73.30
2018-05-08T16:04:54.052Z,74.43
2018-05-08T16:07:22.244Z,72.87
2018-05-08T16:09:50.441Z,72.90
2018-05-08T16:12:18.642Z,73.13
2018-05-08T16:14:47.606Z,70.13
2018-05-08T16:17:16.049Z,71.77
2018-05-08T16:19:44.372Z,69.37
2018-05-08T16:22:14.625Z,70.43
2018-05-08T16:24:43.697Z,69.10
2018-05-08T16:27:11.902Z,69.70
2018-05-08T16:29:40.111Z,68.13
2018-05-08T16:32:09.021Z,70.43
2018-05-08T16:34:37.941Z,68.63
2018-05-08T16:37:06.123Z,69.53
2018-05-08T16:39:34.406Z,66.53
2018-05-08T16:42:02.589Z,69.07
2018-05-08T16:44:31.252Z,67.63
2018-05-08T16:47:00.205Z,69.47
2018-05-08T16:49:28.472Z,66.50
2018-05-08T16:51:56.905Z,66.90
2018-05-08T16:54:25.154Z,65.80
2018-05-08T16:56:53.392Z,68.43
2018-05-08T16:59:21.596Z,68.17
2018-05-08T17:01:49.797Z,67.77
2018-05-08T17:04:18.013Z,67.43
2018-05-08T17:06:46.231Z,66.37
2018-05-08T17:09:14.466Z,68.10
2018-05-08T17:11:42.682Z,68.07
2018-05-08T17:14:11.530Z,70.70
2018-05-08T17:16:39.809Z,64.70
2018-05-08T17:19:08.915Z,65.80
2018-05-08T17:21:37.820Z,64.90
2018-05-08T17:24:06.042Z,68.67
2018-05-08T17:26:34.246Z,67.50
2018-05-08T17:31:36.980Z,64.90
2018-05-08T17:34:05.190Z,64.07
2018-05-08T17:36:33.375Z,66.67
2018-05-08T17:39:01.591Z,68.50
2018-05-08T17:41:31.604Z,66.10
2018-05-08T17:43:59.826Z,65.13
2018-05-08T17:46:28.058Z,67.20
2018-05-08T17:48:56.318Z,66.97
2018-05-08T17:51:24.559Z,67.07
2018-05-08T17:53:53.106Z,67.87
2018-05-08T17:56:22.450Z,67.60
2018-05-08T17:58:51.993Z,68.03
2018-05-08T18:01:21.614Z,72.57
2018-05-08T18:03:52.084Z,67.27
2018-05-08T18:06:23.309Z,68.40
2018-05-08T18:08:52.152Z,68.13
2018-05-08T18:11:21.506Z,68.97
2018-05-08T18:13:50.998Z,66.87
2018-05-08T18:16:20.054Z,70.20
2018-05-08T18:18:49.605Z,66.70
2018-05-08T18:21:19.970Z,67.63
2018-05-08T18:23:49.587Z,67.17
2018-05-08T18:26:18.523Z,65.87
2018-05-08T18:28:47.786Z,68.00
2018-05-08T18:31:16.241Z,71.50
2018-05-08T18:33:45.904Z,67.90
2018-05-08T18:36:14.681Z,67.97
2018-05-08T18:38:43.934Z,66.97
2018-05-08T18:41:13.419Z,67.57
2018-05-08T18:43:43.294Z,67.83
2018-05-08T18:46:14.742Z,69.93
2018-05-08T18:48:46.355Z,67.60
2018-05-08T18:51:16.676Z,67.80
2018-05-08T18:53:46.745Z,69.47
2018-05-08T18:56:17.401Z,65.73
2018-05-08T18:58:47.949Z,66.00
2018-05-08T19:01:17.872Z,125.83
2018-05-08T19:03:49.945Z,64.50
2018-05-08T19:06:20.203Z,65.70
2018-05-08T19:08:49.019Z,65.17
2018-05-08T19:11:23.110Z,64.30
2018-05-08T19:13:51.816Z,65.30
2018-05-08T19:16:21.750Z,65.90
2018-05-08T19:18:55.921Z,65.73
2018-05-08T19:21:24.816Z,65.50
2018-05-08T19:23:59.299Z,63.20
2018-05-08T19:26:28.056Z,65.57
2018-05-08T19:32:06.777Z,67.90
2018-05-08T19:34:41.287Z,65.70
2018-05-08T19:37:15.703Z,66.00
2018-05-08T19:39:44.610Z,65.30
2018-05-08T19:42:13.296Z,66.07
2018-05-08T19:44:42.657Z,64.47
2018-05-08T19:47:11.215Z,63.67
2018-05-08T19:49:40.038Z,65.90
2018-05-08T19:52:08.483Z,66.30
2018-05-08T19:54:39.454Z,67.23
2018-05-08T19:57:08.300Z,65.53
2018-05-08T19:59:37.365Z,64.90
2018-05-08T20:02:06.290Z,65.70
2018-05-08T20:04:34.969Z,66.80
2018-05-08T20:07:03.935Z,65.00
2018-05-08T20:09:32.647Z,64.60
2018-05-08T20:12:01.433Z,67.80
2018-05-08T20:14:30.200Z,69.90
2018-05-08T20:16:58.677Z,64.53
2018-05-08T20:19:27.098Z,67.70
2018-05-08T20:21:56.049Z,66.07
2018-05-08T20:24:24.823Z,66.60
2018-05-08T20:26:54.734Z,68.77
2018-05-08T20:29:23.388Z,64.93
2018-05-08T20:31:52.571Z,65.10
2018-05-08T20:34:21.074Z,66.30
2018-05-08T20:36:49.509Z,62.63
2018-05-08T20:39:18.321Z,64.80
2018-05-08T20:41:46.910Z,64.60
2018-05-08T20:44:16.548Z,63.40
2018-05-08T20:46:45.558Z,67.47
2018-05-08T20:49:14.185Z,66.87
2018-05-08T20:51:43.079Z,63.50
2018-05-08T20:54:11.847Z,62.83
2018-05-08T20:56:40.508Z,63.97
2018-05-08T20:59:08.710Z,68.80
2018-05-08T21:01:36.945Z,66.50
2018-05-08T21:04:05.117Z,67.63
2018-05-08T21:06:33.341Z,62.53
2018-05-08T21:09:01.544Z,64.20
2018-05-08T21:11:29.734Z,63.73
2018-05-08T21:13:58.849Z,60.80
2018-05-08T21:16:27.066Z,62.37
2018-05-08T21:18:55.321Z,61.33
2018-05-08T21:21:23.545Z,62.67
2018-05-08T21:23:51.725Z,62.53
2018-05-08T21:26:19.912Z,64.97
2018-05-08T21:28:53.604Z,62.83
2018-05-08T21:31:22.614Z,63.83
2018-05-08T21:33:50.829Z,64.27
2018-05-08T21:36:19.070Z,63.10
2018-05-08T21:38:47.259Z,62.63
2018-05-08T21:41:15.460Z,61.93
2018-05-08T21:43:43.664Z,62.83
2018-05-08T21:46:11.865Z,64.53
2018-05-08T21:48:40.878Z,63.10
2018-05-08T21:51:09.083Z,65.07
2018-05-08T21:53:37.279Z,64.87
2018-05-08T21:56:05.488Z,63.33
2018-05-08T21:58:33.703Z,62.30
2018-05-08T22:01:01.930Z,62.53
2018-05-08T22:03:30.146Z,61.90
2018-05-08T22:05:58.345Z,67.80
2018-05-08T22:08:26.529Z,63.60
2018-05-08T22:10:55.475Z,62.57
2018-05-08T22:13:23.700Z,62.53
2018-05-08T22:15:52.778Z,63.17
2018-05-08T22:18:21.039Z,65.10
2018-05-08T22:20:49.268Z,62.77
2018-05-08T22:23:17.484Z,64.90
2018-05-08T22:25:45.709Z,64.43
2018-05-08T22:28:14.689Z,64.23
2018-05-08T22:30:43.664Z,62.00
2018-05-08T22:33:11.880Z,63.27
2018-05-08T22:35:40.081Z,61.00
2018-05-08T22:38:08.303Z,62.93
2018-05-08T22:40:36.482Z,62.83
2018-05-08T22:43:04.680Z,61.70
2018-05-08T22:45:32.887Z,62.70
2018-05-08T22:48:01.074Z,63.03
2018-05-08T22:50:29.277Z,63.07
2018-05-08T22:52:57.560Z,64.43
2018-05-08T22:55:25.697Z,62.93
2018-05-08T22:57:53.941Z,62.03
2018-05-08T23:00:22.252Z,65.13
2018-05-08T23:02:50.432Z,59.83
2018-05-08T23:05:18.659Z,64.00
2018-05-08T23:07:46.831Z,60.30
2018-05-08T23:10:15.008Z,62.80
2018-05-08T23:12:43.218Z,63.33
2018-05-08T23:15:11.396Z,60.83
2018-05-08T23:17:39.582Z,61.30
2018-05-08T23:20:07.808Z,58.80
2018-05-08T23:22:36.003Z,61.13
2018-05-08T23:25:04.229Z,60.40
2018-05-08T23:27:32.457Z,62.53
2018-05-08T23:30:00.834Z,61.90
2018-05-08T23:32:29.028Z,62.30
2018-05-08T23:34:57.238Z,61.07
2018-05-08T23:37:26.196Z,62.00
2018-05-08T23:39:54.409Z,63.87
2018-05-08T23:42:22.634Z,57.77
2018-05-08T23:44:50.818Z,59.93
2018-05-08T23:47:19.013Z,67.17
2018-05-08T23:49:47.221Z,62.73
2018-05-08T23:52:15.426Z,65.53
2018-05-08T23:54:44.338Z,62.40
2018-05-08T23:57:13.332Z,62.57
2018-05-08T23:59:41.539Z,59.13
